Oeygutt — LM6979 — position and weather

sailwx.info

Track history (hours):
 
Tides and Currents Weather Stations Pressure Air Temp Water Temp Dewpoint Dewpoint Depression Visibility Wind Speed Wind Dir Waves Ship Positions

Oeygutt

Last reported at 2018-Jan-20 17:39 UTC. Time now 2018-Jan-22 10:37 UTC.
Position N 67°28' E 014°37'.

Length 14 m; draft 2.4 m.

Type: Fishing. MMSI: 257357120.

Date/timePositionNaut miles runAvg speedWind from/ knotsBaromVisibWave heightAir tempDewpointWater temp
2018-Jan-20 17:39N 67°28' E 014°37'1 7.8
2018-Jan-20 17:29N 67°27' E 014°35'4 7.7
2018-Jan-20 17:00N 67°24' E 014°31'4 7.5
2018-Jan-20 16:31N 67°21' E 014°27'4 7.5
2018-Jan-20 16:00N 67°17' E 014°22'0 0.9
2018-Jan-20 15:30N 67°17' E 014°22'2 3.4
2018-Jan-20 15:00N 67°16' E 014°19'4 7.5
2018-Jan-20 14:30N 67°13' E 014°12'4 8.0
2018-Jan-20 14:00N 67°10' E 014°05'5 9.0
2018-Jan-20 13:30N 67°06' E 013°59'4 8.7
2018-Jan-20 13:00N 67°03' E 013°51'4 8.2
2018-Jan-20 12:30N 67°01' E 013°43'4 8.5
2018-Jan-20 12:01N 66°58' E 013°34'4 7.9
2018-Jan-20 11:31N 66°55' E 013°29'18 8.3
2018-Jan-20 09:22N 66°41' E 013°01'12 7.9
2018-Jan-20 07:52N 66°30' E 012°50'3 8.0
2018-Jan-20 07:30N 66°28' E 012°46'4 8.2
2018-Jan-20 06:58N 66°24' E 012°39'2 5.2
2018-Jan-20 06:30N 66°22' E 012°36'0 0.0
2018-Jan-20 06:00N 66°22' E 012°36'0 0.0
2018-Jan-20 05:30N 66°22' E 012°36'0 0.0
2018-Jan-20 05:01N 66°22' E 012°36'0 0.0
2018-Jan-20 04:30N 66°22' E 012°36'0 0.0
2018-Jan-20 04:00N 66°22' E 012°36'0 0.0
2018-Jan-20 03:31N 66°22' E 012°36'0 0.0
2018-Jan-20 03:00N 66°22' E 012°36'0 0.0
2018-Jan-20 02:30N 66°22' E 012°36'0 0.0
2018-Jan-20 02:00N 66°22' E 012°36'0 0.0
2018-Jan-20 01:30N 66°22' E 012°36'0 0.0
2018-Jan-20 01:00N 66°22' E 012°36'0 0.0
2018-Jan-20 00:31N 66°22' E 012°36'0 0.0
2018-Jan-20 00:01N 66°22' E 012°36'0 0.0
2018-Jan-19 23:31N 66°22' E 012°36'0 0.0
2018-Jan-19 23:01N 66°22' E 012°36'0 0.0
2018-Jan-19 22:31N 66°22' E 012°36'0 0.0
2018-Jan-19 22:01N 66°22' E 012°36'0 0.0
2018-Jan-19 21:30N 66°22' E 012°36'0 0.0
2018-Jan-19 21:00N 66°22' E 012°36'0 0.0
2018-Jan-19 20:30N 66°22' E 012°36'0 0.0
2018-Jan-19 20:00N 66°22' E 012°36'0 0.0
2018-Jan-19 19:31N 66°22' E 012°36'0 0.0
2018-Jan-19 19:01N 66°22' E 012°36'0 0.0
2018-Jan-19 18:30N 66°22' E 012°36'0 0.0
2018-Jan-19 18:00N 66°22' E 012°36'0 0.0
2018-Jan-19 17:31N 66°22' E 012°36'0 0.0
2018-Jan-19 17:01N 66°22' E 012°36'0 0.0
2018-Jan-19 16:31N 66°22' E 012°36'0 0.0
2018-Jan-19 16:00N 66°22' E 012°36'0 0.0
2018-Jan-19 15:30N 66°22' E 012°36'0 0.0
2018-Jan-19 15:01N 66°22' E 012°36'0 0.0
2018-Jan-19 14:30N 66°22' E 012°36'0 0.0
2018-Jan-19 14:00N 66°22' E 012°36'0 0.0
2018-Jan-19 13:31N 66°22' E 012°36'0 0.0
2018-Jan-19 13:00N 66°22' E 012°36'0 0.0
2018-Jan-19 12:30N 66°22' E 012°36'0 0.0
2018-Jan-19 12:00N 66°22' E 012°36'0 0.0
2018-Jan-19 11:30N 66°22' E 012°36'0 0.0
2018-Jan-19 11:00N 66°22' E 012°36'1 1.2
2018-Jan-19 10:30N 66°22' E 012°36'1 1.2
2018-Jan-19 10:00N 66°22' E 012°36'0 0.0
2018-Jan-19 09:30N 66°22' E 012°36'0 0.0
2018-Jan-19 09:00N 66°22' E 012°36'0 0.0
2018-Jan-19 08:30N 66°22' E 012°36'0 0.0
2018-Jan-19 08:00N 66°22' E 012°36'0 0.0
2018-Jan-19 07:31N 66°22' E 012°36'0 0.0
2018-Jan-19 07:00N 66°22' E 012°36'0 0.0
2018-Jan-19 06:28N 66°22' E 012°36'0 0.0
2018-Jan-19 05:56N 66°22' E 012°36'0 0.0
2018-Jan-19 05:31N 66°22' E 012°36'0 0.0
2018-Jan-19 05:00N 66°22' E 012°36'0 0.0
2018-Jan-19 04:30N 66°22' E 012°36'0 0.0
2018-Jan-19 04:01N 66°22' E 012°36'0 0.0
2018-Jan-19 03:30N 66°22' E 012°36'0 0.0
2018-Jan-19 03:00N 66°22' E 012°36'0 0.0
2018-Jan-19 02:30N 66°22' E 012°36'0 0.0
2018-Jan-19 02:01N 66°22' E 012°36'0 0.0
2018-Jan-19 01:30N 66°22' E 012°36'0 0.0
2018-Jan-19 01:00N 66°22' E 012°36'0 0.0
2018-Jan-19 00:30N 66°22' E 012°36'0 0.0
2018-Jan-19 00:00N 66°22' E 012°36'0 0.0
2018-Jan-18 23:30N 66°22' E 012°36'0 0.0
2018-Jan-18 23:00N 66°22' E 012°36'0 0.0
2018-Jan-18 22:30N 66°22' E 012°36'0 0.0
2018-Jan-18 22:00N 66°22' E 012°36'0 0.0
2018-Jan-18 21:30N 66°22' E 012°36'0 0.0
2018-Jan-18 21:00N 66°22' E 012°36'0 0.0
2018-Jan-18 20:30N 66°22' E 012°36'0 0.0
2018-Jan-18 20:00N 66°22' E 012°36'0 0.0
2018-Jan-18 19:30N 66°22' E 012°36'0 0.0
2018-Jan-18 19:00N 66°22' E 012°36'0 0.0
2018-Jan-18 18:30N 66°22' E 012°36'0 0.0
2018-Jan-18 18:00N 66°22' E 012°36'0 0.0
2018-Jan-18 17:31N 66°22' E 012°36'0 0.0
2018-Jan-18 16:59N 66°22' E 012°36'0 0.0
2018-Jan-18 16:29N 66°22' E 012°36'0 0.0
2018-Jan-18 16:00N 66°22' E 012°36'0 0.0
2018-Jan-18 15:31N 66°22' E 012°36'0 0.0
2018-Jan-18 15:01N 66°22' E 012°36'0 0.0
2018-Jan-18 14:31N 66°22' E 012°36'0 0.0
2018-Jan-18 14:00N 66°22' E 012°36'0 0.0
2018-Jan-18 13:30N 66°22' E 012°36'0 0.0
2018-Jan-18 13:00N 66°22' E 012°36'0 0.0
2018-Jan-18 12:30N 66°22' E 012°36'0 0.0
2018-Jan-18 12:00N 66°22' E 012°36'0 0.0
2018-Jan-18 11:30N 66°22' E 012°36'0 0.0
2018-Jan-18 11:00N 66°22' E 012°36'0 0.0
2018-Jan-18 10:30N 66°22' E 012°36'0 0.0
2018-Jan-18 10:01N 66°22' E 012°36'0 0.0
2018-Jan-18 09:30N 66°22' E 012°36'0 0.0
2018-Jan-18 09:00N 66°22' E 012°36'0 0.0
2018-Jan-18 08:31N 66°22' E 012°36'0 0.0
2018-Jan-18 08:00N 66°22' E 012°36'0 0.0
2018-Jan-18 07:30N 66°22' E 012°36'0 0.0
2018-Jan-18 07:00N 66°22' E 012°36'0 0.0
2018-Jan-18 06:30N 66°22' E 012°36'0 0.0
2018-Jan-18 06:00N 66°22' E 012°36'0 0.0
2018-Jan-18 05:30N 66°22' E 012°36'0 0.0
2018-Jan-18 05:01N 66°22' E 012°36'0 0.0
2018-Jan-18 04:31N 66°22' E 012°36'0 0.0
2018-Jan-18 04:01N 66°22' E 012°36'0 0.0
2018-Jan-18 03:30N 66°22' E 012°36'0 0.0
2018-Jan-18 03:00N 66°22' E 012°36'0 0.0
2018-Jan-18 02:30N 66°22' E 012°36'0 0.0
2018-Jan-18 02:00N 66°22' E 012°36'0 0.0
2018-Jan-18 01:30N 66°22' E 012°36'0 0.0
2018-Jan-18 01:00N 66°22' E 012°36'0 0.0
2018-Jan-18 00:00N 66°22' E 012°36'0 0.1
2018-Jan-17 23:58N 66°22' E 012°36'  
2018-Jan-12 14:59N 66°22' E 012°36'0 0.0
2018-Jan-12 14:29N 66°22' E 012°36'0 0.0
2018-Jan-12 14:00N 66°22' E 012°36'0 0.0
2018-Jan-12 13:26N 66°22' E 012°36'0 0.0
2018-Jan-12 12:38N 66°22' E 012°36'0 0.0
2018-Jan-12 12:19N 66°22' E 012°36'0 0.0
2018-Jan-12 04:42N 66°22' E 012°36'0 0.0
2018-Jan-12 04:15N 66°22' E 012°36'0 0.0
2018-Jan-12 03:57N 66°22' E 012°36'0 0.0
2018-Jan-12 03:30N 66°22' E 012°36'0 0.0
2018-Jan-12 03:00N 66°22' E 012°36'0 0.0
2018-Jan-12 01:57N 66°22' E 012°36'0 0.0
2018-Jan-12 01:10N 66°22' E 012°36'0 0.0
2018-Jan-12 00:46N 66°22' E 012°36'0 0.0
2018-Jan-12 00:30N 66°22' E 012°36'0 0.0
2018-Jan-12 00:00N 66°22' E 012°36'0 0.0
2018-Jan-11 23:28N 66°22' E 012°36'0 0.0
2018-Jan-11 22:56N 66°22' E 012°36'0 0.0
2018-Jan-11 22:30N 66°22' E 012°36'0 0.0
2018-Jan-11 21:57N 66°22' E 012°36'0 0.0
2018-Jan-11 21:26N 66°22' E 012°36'0 0.0
2018-Jan-11 20:57N 66°22' E 012°36'0 0.0
2018-Jan-11 20:03N 66°22' E 012°36'0 0.0
2018-Jan-11 19:46N 66°22' E 012°36'0 0.0
2018-Jan-11 19:30N 66°22' E 012°36'0 0.0
2018-Jan-11 19:00N 66°22' E 012°36'0 0.0
2018-Jan-11 18:27N 66°22' E 012°36'0 0.0
2018-Jan-11 17:56N 66°22' E 012°36'0 0.0
2018-Jan-11 17:30N 66°22' E 012°36'0 0.0
2018-Jan-11 16:59N 66°22' E 012°36'0 0.0
2018-Jan-11 16:30N 66°22' E 012°36'0 0.0
2018-Jan-11 15:59N 66°22' E 012°36'0 0.0
2018-Jan-11 15:30N 66°22' E 012°36'0 0.0
2018-Jan-11 14:59N 66°22' E 012°36'0 0.0
2018-Jan-11 14:31N 66°22' E 012°36'0 0.0
2018-Jan-11 13:58N 66°22' E 012°36'0 0.0
2018-Jan-11 13:31N 66°22' E 012°36'0 0.0
2018-Jan-11 13:00N 66°22' E 012°36'0 0.0
2018-Jan-11 12:30N 66°22' E 012°36'0 0.0
2018-Jan-11 11:57N 66°22' E 012°36'0 0.0
2018-Jan-11 11:27N 66°22' E 012°36'0 0.0
2018-Jan-11 11:00N 66°22' E 012°36'0 0.0
2018-Jan-11 10:28N 66°22' E 012°36'0 0.0
2018-Jan-11 10:00N 66°22' E 012°36'0 0.0
2018-Jan-11 09:29N 66°22' E 012°36'0 0.0
2018-Jan-11 09:00N 66°22' E 012°36'0 0.0
2018-Jan-11 08:30N 66°22' E 012°36'0 0.0
2018-Jan-11 08:00N 66°22' E 012°36'0 0.0
2018-Jan-11 07:30N 66°22' E 012°36'0 0.0
2018-Jan-11 07:00N 66°22' E 012°36'0 0.0
2018-Jan-11 06:30N 66°22' E 012°36'0 0.0
2018-Jan-11 06:00N 66°22' E 012°36'0 0.0
2018-Jan-11 05:30N 66°22' E 012°36'0 0.0
2018-Jan-11 05:00N 66°22' E 012°36'0 0.0
2018-Jan-11 04:30N 66°22' E 012°36'0 0.0
2018-Jan-11 04:01N 66°22' E 012°36'0 0.0
2018-Jan-11 03:30N 66°22' E 012°36'0 0.0
2018-Jan-11 03:00N 66°22' E 012°36'0 0.0
2018-Jan-11 02:31N 66°22' E 012°36'0 0.0
2018-Jan-11 02:00N 66°22' E 012°36'0 0.0
2018-Jan-11 01:30N 66°22' E 012°36'0 0.0
2018-Jan-11 01:00N 66°22' E 012°36'0 0.0
2018-Jan-11 00:30N 66°22' E 012°36'0 0.0
2018-Jan-11 00:00N 66°22' E 012°36'0 0.0
2018-Jan-10 23:31N 66°22' E 012°36'0 0.0
2018-Jan-10 23:00N 66°22' E 012°36'0 0.0
2018-Jan-10 22:30N 66°22' E 012°36'0 0.0
2018-Jan-10 22:00N 66°22' E 012°36'0 0.0
2018-Jan-10 21:30N 66°22' E 012°36'0 0.0
2018-Jan-10 21:01N 66°22' E 012°36'0 0.0
2018-Jan-10 20:31N 66°22' E 012°36'0 0.0
2018-Jan-10 20:01N 66°22' E 012°36'0 0.0
2018-Jan-10 19:31N 66°22' E 012°36'0 0.0
2018-Jan-10 19:00N 66°22' E 012°36'0 0.0
2018-Jan-10 18:30N 66°22' E 012°36'  
Track history (hours):
 
Tides and Currents Weather Stations Pressure Air Temp Water Temp Dewpoint Dewpoint Depression Visibility Wind Speed Wind Dir Waves Ship Positions

Oeygutt

Last reported at 2018-Jan-20 17:39 UTC. Time now 2018-Jan-22 10:37 UTC.
Position N 67°28' E 014°37'.

Length 14 m; draft 2.4 m.

Type: Fishing. MMSI: 257357120.

Date/timePositionNaut miles runAvg speedWind from/ knotsBaromVisibWave heightAir tempDewpointWater temp
2018-Jan-20 17:39N 67°28' E 014°37'1 7.8
2018-Jan-20 17:29N 67°27' E 014°35'4 7.7
2018-Jan-20 17:00N 67°24' E 014°31'4 7.5
2018-Jan-20 16:31N 67°21' E 014°27'4 7.5
2018-Jan-20 16:00N 67°17' E 014°22'0 0.9
2018-Jan-20 15:30N 67°17' E 014°22'2 3.4
2018-Jan-20 15:00N 67°16' E 014°19'4 7.5
2018-Jan-20 14:30N 67°13' E 014°12'4 8.0
2018-Jan-20 14:00N 67°10' E 014°05'5 9.0
2018-Jan-20 13:30N 67°06' E 013°59'4 8.7
2018-Jan-20 13:00N 67°03' E 013°51'4 8.2
2018-Jan-20 12:30N 67°01' E 013°43'4 8.5
2018-Jan-20 12:01N 66°58' E 013°34'4 7.9
2018-Jan-20 11:31N 66°55' E 013°29'18 8.3
2018-Jan-20 09:22N 66°41' E 013°01'12 7.9
2018-Jan-20 07:52N 66°30' E 012°50'3 8.0
2018-Jan-20 07:30N 66°28' E 012°46'4 8.2
2018-Jan-20 06:58N 66°24' E 012°39'2 5.2
2018-Jan-20 06:30N 66°22' E 012°36'0 0.0
2018-Jan-20 06:00N 66°22' E 012°36'0 0.0
2018-Jan-20 05:30N 66°22' E 012°36'0 0.0
2018-Jan-20 05:01N 66°22' E 012°36'0 0.0
2018-Jan-20 04:30N 66°22' E 012°36'0 0.0
2018-Jan-20 04:00N 66°22' E 012°36'0 0.0
2018-Jan-20 03:31N 66°22' E 012°36'0 0.0
2018-Jan-20 03:00N 66°22' E 012°36'0 0.0
2018-Jan-20 02:30N 66°22' E 012°36'0 0.0
2018-Jan-20 02:00N 66°22' E 012°36'0 0.0
2018-Jan-20 01:30N 66°22' E 012°36'0 0.0
2018-Jan-20 01:00N 66°22' E 012°36'0 0.0
2018-Jan-20 00:31N 66°22' E 012°36'0 0.0
2018-Jan-20 00:01N 66°22' E 012°36'0 0.0
2018-Jan-19 23:31N 66°22' E 012°36'0 0.0
2018-Jan-19 23:01N 66°22' E 012°36'0 0.0
2018-Jan-19 22:31N 66°22' E 012°36'0 0.0
2018-Jan-19 22:01N 66°22' E 012°36'0 0.0
2018-Jan-19 21:30N 66°22' E 012°36'0 0.0
2018-Jan-19 21:00N 66°22' E 012°36'0 0.0
2018-Jan-19 20:30N 66°22' E 012°36'0 0.0
2018-Jan-19 20:00N 66°22' E 012°36'0 0.0
2018-Jan-19 19:31N 66°22' E 012°36'0 0.0
2018-Jan-19 19:01N 66°22' E 012°36'0 0.0
2018-Jan-19 18:30N 66°22' E 012°36'0 0.0
2018-Jan-19 18:00N 66°22' E 012°36'0 0.0
2018-Jan-19 17:31N 66°22' E 012°36'0 0.0
2018-Jan-19 17:01N 66°22' E 012°36'0 0.0
2018-Jan-19 16:31N 66°22' E 012°36'0 0.0
2018-Jan-19 16:00N 66°22' E 012°36'0 0.0
2018-Jan-19 15:30N 66°22' E 012°36'0 0.0
2018-Jan-19 15:01N 66°22' E 012°36'0 0.0
2018-Jan-19 14:30N 66°22' E 012°36'0 0.0
2018-Jan-19 14:00N 66°22' E 012°36'0 0.0
2018-Jan-19 13:31N 66°22' E 012°36'0 0.0
2018-Jan-19 13:00N 66°22' E 012°36'0 0.0
2018-Jan-19 12:30N 66°22' E 012°36'0 0.0
2018-Jan-19 12:00N 66°22' E 012°36'0 0.0
2018-Jan-19 11:30N 66°22' E 012°36'0 0.0
2018-Jan-19 11:00N 66°22' E 012°36'1 1.2
2018-Jan-19 10:30N 66°22' E 012°36'1 1.2
2018-Jan-19 10:00N 66°22' E 012°36'0 0.0
2018-Jan-19 09:30N 66°22' E 012°36'0 0.0
2018-Jan-19 09:00N 66°22' E 012°36'0 0.0
2018-Jan-19 08:30N 66°22' E 012°36'0 0.0
2018-Jan-19 08:00N 66°22' E 012°36'0 0.0
2018-Jan-19 07:31N 66°22' E 012°36'0 0.0
2018-Jan-19 07:00N 66°22' E 012°36'0 0.0
2018-Jan-19 06:28N 66°22' E 012°36'0 0.0
2018-Jan-19 05:56N 66°22' E 012°36'0 0.0
2018-Jan-19 05:31N 66°22' E 012°36'0 0.0
2018-Jan-19 05:00N 66°22' E 012°36'0 0.0
2018-Jan-19 04:30N 66°22' E 012°36'0 0.0
2018-Jan-19 04:01N 66°22' E 012°36'0 0.0
2018-Jan-19 03:30N 66°22' E 012°36'0 0.0
2018-Jan-19 03:00N 66°22' E 012°36'0 0.0
2018-Jan-19 02:30N 66°22' E 012°36'0 0.0
2018-Jan-19 02:01N 66°22' E 012°36'0 0.0
2018-Jan-19 01:30N 66°22' E 012°36'0 0.0
2018-Jan-19 01:00N 66°22' E 012°36'0 0.0
2018-Jan-19 00:30N 66°22' E 012°36'0 0.0
2018-Jan-19 00:00N 66°22' E 012°36'0 0.0
2018-Jan-18 23:30N 66°22' E 012°36'0 0.0
2018-Jan-18 23:00N 66°22' E 012°36'0 0.0
2018-Jan-18 22:30N 66°22' E 012°36'0 0.0
2018-Jan-18 22:00N 66°22' E 012°36'0 0.0
2018-Jan-18 21:30N 66°22' E 012°36'0 0.0
2018-Jan-18 21:00N 66°22' E 012°36'0 0.0
2018-Jan-18 20:30N 66°22' E 012°36'0 0.0
2018-Jan-18 20:00N 66°22' E 012°36'0 0.0
2018-Jan-18 19:30N 66°22' E 012°36'0 0.0
2018-Jan-18 19:00N 66°22' E 012°36'0 0.0
2018-Jan-18 18:30N 66°22' E 012°36'0 0.0
2018-Jan-18 18:00N 66°22' E 012°36'0 0.0
2018-Jan-18 17:31N 66°22' E 012°36'0 0.0
2018-Jan-18 16:59N 66°22' E 012°36'0 0.0
2018-Jan-18 16:29N 66°22' E 012°36'0 0.0
2018-Jan-18 16:00N 66°22' E 012°36'0 0.0
2018-Jan-18 15:31N 66°22' E 012°36'0 0.0
2018-Jan-18 15:01N 66°22' E 012°36'0 0.0
2018-Jan-18 14:31N 66°22' E 012°36'0 0.0
2018-Jan-18 14:00N 66°22' E 012°36'0 0.0
2018-Jan-18 13:30N 66°22' E 012°36'0 0.0
2018-Jan-18 13:00N 66°22' E 012°36'0 0.0
2018-Jan-18 12:30N 66°22' E 012°36'0 0.0
2018-Jan-18 12:00N 66°22' E 012°36'0 0.0
2018-Jan-18 11:30N 66°22' E 012°36'0 0.0
2018-Jan-18 11:00N 66°22' E 012°36'0 0.0
2018-Jan-18 10:30N 66°22' E 012°36'0 0.0
2018-Jan-18 10:01N 66°22' E 012°36'0 0.0
2018-Jan-18 09:30N 66°22' E 012°36'0 0.0
2018-Jan-18 09:00N 66°22' E 012°36'0 0.0
2018-Jan-18 08:31N 66°22' E 012°36'0 0.0
2018-Jan-18 08:00N 66°22' E 012°36'0 0.0
2018-Jan-18 07:30N 66°22' E 012°36'0 0.0
2018-Jan-18 07:00N 66°22' E 012°36'0 0.0
2018-Jan-18 06:30N 66°22' E 012°36'0 0.0
2018-Jan-18 06:00N 66°22' E 012°36'0 0.0
2018-Jan-18 05:30N 66°22' E 012°36'0 0.0
2018-Jan-18 05:01N 66°22' E 012°36'0 0.0
2018-Jan-18 04:31N 66°22' E 012°36'0 0.0
2018-Jan-18 04:01N 66°22' E 012°36'0 0.0
2018-Jan-18 03:30N 66°22' E 012°36'0 0.0
2018-Jan-18 03:00N 66°22' E 012°36'0 0.0
2018-Jan-18 02:30N 66°22' E 012°36'0 0.0
2018-Jan-18 02:00N 66°22' E 012°36'0 0.0
2018-Jan-18 01:30N 66°22' E 012°36'0 0.0
2018-Jan-18 01:00N 66°22' E 012°36'0 0.0
2018-Jan-18 00:00N 66°22' E 012°36'0 0.1
2018-Jan-17 23:58N 66°22' E 012°36'  
2018-Jan-12 14:59N 66°22' E 012°36'0 0.0
2018-Jan-12 14:29N 66°22' E 012°36'0 0.0
2018-Jan-12 14:00N 66°22' E 012°36'0 0.0
2018-Jan-12 13:26N 66°22' E 012°36'0 0.0
2018-Jan-12 12:38N 66°22' E 012°36'0 0.0
2018-Jan-12 12:19N 66°22' E 012°36'0 0.0
2018-Jan-12 04:42N 66°22' E 012°36'0 0.0
2018-Jan-12 04:15N 66°22' E 012°36'0 0.0
2018-Jan-12 03:57N 66°22' E 012°36'0 0.0
2018-Jan-12 03:30N 66°22' E 012°36'0 0.0
2018-Jan-12 03:00N 66°22' E 012°36'0 0.0
2018-Jan-12 01:57N 66°22' E 012°36'0 0.0
2018-Jan-12 01:10N 66°22' E 012°36'0 0.0
2018-Jan-12 00:46N 66°22' E 012°36'0 0.0
2018-Jan-12 00:30N 66°22' E 012°36'0 0.0
2018-Jan-12 00:00N 66°22' E 012°36'0 0.0
2018-Jan-11 23:28N 66°22' E 012°36'0 0.0
2018-Jan-11 22:56N 66°22' E 012°36'0 0.0
2018-Jan-11 22:30N 66°22' E 012°36'0 0.0
2018-Jan-11 21:57N 66°22' E 012°36'0 0.0
2018-Jan-11 21:26N 66°22' E 012°36'0 0.0
2018-Jan-11 20:57N 66°22' E 012°36'0 0.0
2018-Jan-11 20:03N 66°22' E 012°36'0 0.0
2018-Jan-11 19:46N 66°22' E 012°36'0 0.0
2018-Jan-11 19:30N 66°22' E 012°36'0 0.0
2018-Jan-11 19:00N 66°22' E 012°36'0 0.0
2018-Jan-11 18:27N 66°22' E 012°36'0 0.0
2018-Jan-11 17:56N 66°22' E 012°36'0 0.0
2018-Jan-11 17:30N 66°22' E 012°36'0 0.0
2018-Jan-11 16:59N 66°22' E 012°36'0 0.0
2018-Jan-11 16:30N 66°22' E 012°36'0 0.0
2018-Jan-11 15:59N 66°22' E 012°36'0 0.0
2018-Jan-11 15:30N 66°22' E 012°36'0 0.0
2018-Jan-11 14:59N 66°22' E 012°36'0 0.0
2018-Jan-11 14:31N 66°22' E 012°36'0 0.0
2018-Jan-11 13:58N 66°22' E 012°36'0 0.0
2018-Jan-11 13:31N 66°22' E 012°36'0 0.0
2018-Jan-11 13:00N 66°22' E 012°36'0 0.0
2018-Jan-11 12:30N 66°22' E 012°36'0 0.0
2018-Jan-11 11:57N 66°22' E 012°36'0 0.0
2018-Jan-11 11:27N 66°22' E 012°36'0 0.0
2018-Jan-11 11:00N 66°22' E 012°36'0 0.0
2018-Jan-11 10:28N 66°22' E 012°36'0 0.0
2018-Jan-11 10:00N 66°22' E 012°36'0 0.0
2018-Jan-11 09:29N 66°22' E 012°36'0 0.0
2018-Jan-11 09:00N 66°22' E 012°36'0 0.0
2018-Jan-11 08:30N 66°22' E 012°36'0 0.0
2018-Jan-11 08:00N 66°22' E 012°36'0 0.0
2018-Jan-11 07:30N 66°22' E 012°36'0 0.0
2018-Jan-11 07:00N 66°22' E 012°36'0 0.0
2018-Jan-11 06:30N 66°22' E 012°36'0 0.0
2018-Jan-11 06:00N 66°22' E 012°36'0 0.0
2018-Jan-11 05:30N 66°22' E 012°36'0 0.0
2018-Jan-11 05:00N 66°22' E 012°36'0 0.0
2018-Jan-11 04:30N 66°22' E 012°36'0 0.0
2018-Jan-11 04:01N 66°22' E 012°36'0 0.0
2018-Jan-11 03:30N 66°22' E 012°36'0 0.0
2018-Jan-11 03:00N 66°22' E 012°36'0 0.0
2018-Jan-11 02:31N 66°22' E 012°36'0 0.0
2018-Jan-11 02:00N 66°22' E 012°36'0 0.0
2018-Jan-11 01:30N 66°22' E 012°36'0 0.0
2018-Jan-11 01:00N 66°22' E 012°36'0 0.0
2018-Jan-11 00:30N 66°22' E 012°36'0 0.0
2018-Jan-11 00:00N 66°22' E 012°36'0 0.0
2018-Jan-10 23:31N 66°22' E 012°36'0 0.0
2018-Jan-10 23:00N 66°22' E 012°36'0 0.0
2018-Jan-10 22:30N 66°22' E 012°36'0 0.0
2018-Jan-10 22:00N 66°22' E 012°36'0 0.0
2018-Jan-10 21:30N 66°22' E 012°36'0 0.0
2018-Jan-10 21:01N 66°22' E 012°36'0 0.0
2018-Jan-10 20:31N 66°22' E 012°36'0 0.0
2018-Jan-10 20:01N 66°22' E 012°36'0 0.0
2018-Jan-10 19:31N 66°22' E 012°36'0 0.0
2018-Jan-10 19:00N 66°22' E 012°36'0 0.0
2018-Jan-10 18:30N 66°22' E 012°36'  

Dump ship's entire track history